createdAt,value
2022-10-13T00:03:41.980Z,6.97
2022-10-13T00:07:43.620Z,7.40
2022-10-13T00:11:45.365Z,6.22
2022-10-13T00:15:48.087Z,7.68
2022-10-13T00:19:49.646Z,6.45
2022-10-13T00:23:53.165Z,7.30
2022-10-13T00:27:54.641Z,7.00
2022-10-13T00:31:59.144Z,6.85
2022-10-13T00:36:00.939Z,6.68
2022-10-13T00:40:04.185Z,6.15
2022-10-13T00:44:27.769Z,7.57
2022-10-13T00:48:31.011Z,6.03
2022-10-13T00:52:33.524Z,7.28
2022-10-13T00:56:37.352Z,6.57
2022-10-13T01:00:38.902Z,7.70
2022-10-13T01:04:44.126Z,6.82
2022-10-13T01:08:45.841Z,7.18
2022-10-13T01:12:59.521Z,6.82
2022-10-13T01:17:01.191Z,8.05
2022-10-13T01:21:25.728Z,6.57
2022-10-13T01:25:30.510Z,7.20
2022-10-13T01:29:50.910Z,7.45
2022-10-13T01:33:57.499Z,7.32
2022-10-13T01:38:09.364Z,7.95
2022-10-13T01:42:17.419Z,6.70
2022-10-13T01:46:24.776Z,7.32
2022-10-13T01:50:26.620Z,6.80
2022-10-13T01:54:28.126Z,7.18
2022-10-13T01:58:33.943Z,7.28
2022-10-13T02:03:05.805Z,7.38
2022-10-13T02:07:22.098Z,7.45
2022-10-13T02:11:25.092Z,6.55
2022-10-13T02:15:38.093Z,6.75
2022-10-13T02:19:43.362Z,8.10
2022-10-13T02:23:45.906Z,7.13
2022-10-13T02:27:47.531Z,6.75
2022-10-13T02:31:49.009Z,7.25
2022-10-13T02:35:50.643Z,6.93
2022-10-13T02:39:52.570Z,7.53
2022-10-13T02:43:54.398Z,7.88
2022-10-13T02:48:00.734Z,7.70
2022-10-13T02:52:02.210Z,7.38
2022-10-13T02:56:03.947Z,7.72
2022-10-13T03:00:07.290Z,7.47
2022-10-13T03:04:09.865Z,7.68
2022-10-13T03:08:11.591Z,7.72
2022-10-13T03:12:14.886Z,7.78
2022-10-13T03:16:16.501Z,6.93
2022-10-13T03:20:18.278Z,8.18
2022-10-13T03:24:19.832Z,7.95
2022-10-13T03:28:21.700Z,7.20
2022-10-13T03:32:25.856Z,7.45
2022-10-13T03:36:27.534Z,8.70
2022-10-13T03:40:29.095Z,7.65
2022-10-13T03:44:30.615Z,7.85
2022-10-13T03:48:34.341Z,6.65
2022-10-13T03:52:35.941Z,8.27
2022-10-13T03:56:37.483Z,8.93
2022-10-13T04:00:38.963Z,7.97
2022-10-13T04:04:40.558Z,7.45
2022-10-13T04:08:42.185Z,8.02
2022-10-13T04:12:43.799Z,7.82
2022-10-13T04:16:46.784Z,6.80
2022-10-13T04:20:48.323Z,8.20
2022-10-13T04:24:49.999Z,6.82
2022-10-13T04:28:53.774Z,9.15
2022-10-13T04:32:55.427Z,7.95
2022-10-13T04:36:56.922Z,8.43
2022-10-13T04:40:58.581Z,7.93
2022-10-13T04:45:03.741Z,8.27
2022-10-13T04:49:05.431Z,7.18
2022-10-13T04:53:09.109Z,8.40
2022-10-13T04:57:10.590Z,8.73
2022-10-13T05:01:21.785Z,8.10
2022-10-13T05:05:23.970Z,8.90
2022-10-13T05:09:25.633Z,9.38
2022-10-13T05:13:29.722Z,9.13
2022-10-13T05:17:35.506Z,8.57
2022-10-13T05:21:42.821Z,8.38
2022-10-13T05:25:44.602Z,8.75
2022-10-13T05:29:48.384Z,9.25
2022-10-13T05:33:51.743Z,8.45
2022-10-13T05:37:57.632Z,9.45
2022-10-13T05:41:59.369Z,8.20
2022-10-13T05:46:01.518Z,8.60
2022-10-13T05:50:04.620Z,7.88
2022-10-13T05:54:26.488Z,8.23
2022-10-13T05:58:28.144Z,9.07
2022-10-13T06:02:36.402Z,9.55
2022-10-13T06:06:48.852Z,8.90
2022-10-13T06:10:50.714Z,8.05
2022-10-13T06:14:55.491Z,7.97
2022-10-13T06:24:43.812Z,8.48
2022-10-13T06:28:49.820Z,8.80
2022-10-13T06:32:55.388Z,8.35
2022-10-13T06:36:58.825Z,8.60
2022-10-13T06:41:01.814Z,8.90
2022-10-13T06:50:01.864Z,9.27
2022-10-13T06:54:03.869Z,8.48
2022-10-13T06:58:07.070Z,8.43
2022-10-13T07:03:11.409Z,8.35
2022-10-13T07:07:13.707Z,8.57
2022-10-13T07:11:18.495Z,8.93
2022-10-13T07:15:26.096Z,7.28
2022-10-13T07:19:37.126Z,9.13
2022-10-13T07:23:39.946Z,8.10
2022-10-13T07:27:44.364Z,8.10
2022-10-13T07:31:51.062Z,8.57
2022-10-13T07:35:52.602Z,8.57
2022-10-13T07:39:55.976Z,7.85
2022-10-13T07:43:58.301Z,8.82
2022-10-13T07:48:50.327Z,8.23
2022-10-13T07:52:51.993Z,8.35
2022-10-13T07:57:27.523Z,8.15
2022-10-13T08:01:29.244Z,8.20
2022-10-13T08:05:53.047Z,8.00
2022-10-13T08:09:54.750Z,7.80
2022-10-13T08:14:00.663Z,6.88
2022-10-13T08:18:02.196Z,7.82
2022-10-13T08:22:53.500Z,7.18
2022-10-13T08:27:00.157Z,8.10
2022-10-13T08:31:02.178Z,8.30
2022-10-13T08:35:04.386Z,7.68
2022-10-13T08:39:06.571Z,7.68
2022-10-13T08:43:24.436Z,7.68
2022-10-13T08:47:34.739Z,7.75
2022-10-13T08:56:24.397Z,8.20
2022-10-13T09:04:37.775Z,7.40
2022-10-13T09:09:05.197Z,7.25
2022-10-13T09:13:09.243Z,7.93
2022-10-13T09:17:29.166Z,6.53
2022-10-13T09:21:31.004Z,7.07
2022-10-13T09:25:42.362Z,7.00
2022-10-13T09:29:44.858Z,7.55
2022-10-13T09:33:58.423Z,7.35
2022-10-13T09:38:19.986Z,7.60
2022-10-13T09:42:24.961Z,7.90
2022-10-13T09:47:04.251Z,8.13
2022-10-13T09:51:55.477Z,8.43
2022-10-13T09:56:35.736Z,8.32
2022-10-13T10:00:38.109Z,7.43
2022-10-13T10:04:43.203Z,6.78
2022-10-13T10:09:03.107Z,6.85
2022-10-13T10:13:05.866Z,7.68
2022-10-13T10:17:19.690Z,7.63
2022-10-13T10:21:53.336Z,7.75
2022-10-13T10:26:32.927Z,6.53
2022-10-13T10:31:24.648Z,8.50
2022-10-13T10:35:49.334Z,7.07
2022-10-13T10:40:02.697Z,7.57
2022-10-13T10:44:22.852Z,8.32
2022-10-13T10:48:34.858Z,6.75
2022-10-13T10:52:56.300Z,7.10
2022-10-13T10:57:29.095Z,5.85
2022-10-13T11:01:33.275Z,7.60
2022-10-13T11:05:57.585Z,6.63
2022-10-13T11:09:59.260Z,6.80
2022-10-13T11:14:07.621Z,6.32
2022-10-13T11:18:46.841Z,6.85
2022-10-13T11:22:57.588Z,6.57
2022-10-13T11:27:27.493Z,5.75
2022-10-13T11:31:35.137Z,6.40
2022-10-13T11:35:37.848Z,6.25
2022-10-13T11:40:09.356Z,4.80
2022-10-13T11:44:49.755Z,5.53
2022-10-13T11:49:15.570Z,5.20
2022-10-13T11:53:21.357Z,4.97
2022-10-13T11:57:27.168Z,4.80
2022-10-13T12:05:31.961Z,6.18
2022-10-13T12:09:39.284Z,5.57
2022-10-13T12:13:46.711Z,5.40
2022-10-13T12:17:50.022Z,4.70
2022-10-13T12:21:54.555Z,6.72
2022-10-13T12:25:59.950Z,6.93
2022-10-13T12:30:02.696Z,6.22
2022-10-13T12:34:04.627Z,4.60
2022-10-13T12:38:18.832Z,4.80
2022-10-13T12:42:30.873Z,5.63
2022-10-13T12:46:43.603Z,4.95
2022-10-13T12:50:45.381Z,5.03
2022-10-13T12:54:53.638Z,4.75
2022-10-13T12:58:56.467Z,5.15
2022-10-13T13:03:03.969Z,5.65
2022-10-13T13:07:30.574Z,4.68
2022-10-13T13:11:39.357Z,5.00
2022-10-13T13:15:43.959Z,4.65
2022-10-13T13:19:48.087Z,4.72
2022-10-13T13:23:53.682Z,5.25
2022-10-13T13:27:55.816Z,5.22
2022-10-13T13:31:57.714Z,5.63
2022-10-13T13:35:59.463Z,5.03
2022-10-13T13:40:01.554Z,4.60
2022-10-13T13:44:37.084Z,4.45
2022-10-13T13:48:39.563Z,4.50
2022-10-13T13:52:41.753Z,4.13
2022-10-13T13:57:35.441Z,4.75
2022-10-13T14:02:03.679Z,4.45
2022-10-13T14:06:07.664Z,4.63
2022-10-13T14:11:02.533Z,5.32
2022-10-13T14:15:05.276Z,5.07
2022-10-13T14:19:41.963Z,4.70
2022-10-13T14:35:21.560Z,4.68
2022-10-13T14:39:23.009Z,4.72
2022-10-13T14:44:17.690Z,4.88
2022-10-13T14:48:24.563Z,5.20
2022-10-13T14:52:26.662Z,4.95
2022-10-13T14:57:19.356Z,5.43
2022-10-13T15:01:29.004Z,5.45
2022-10-13T15:05:31.047Z,5.60
2022-10-13T15:09:45.153Z,6.20
2022-10-13T15:14:25.344Z,5.70
2022-10-13T15:18:43.893Z,5.40
2022-10-13T15:22:48.878Z,5.35
2022-10-13T15:26:50.876Z,5.15
2022-10-13T15:30:52.590Z,5.32
2022-10-13T15:34:58.188Z,7.05
2022-10-13T15:39:25.957Z,5.45
2022-10-13T15:43:28.152Z,4.85
2022-10-13T15:47:32.753Z,5.00
2022-10-13T15:51:35.017Z,6.25
2022-10-13T15:55:41.553Z,6.50
2022-10-13T15:59:43.475Z,7.63
2022-10-13T16:03:45.228Z,7.82
2022-10-13T16:07:50.685Z,7.53
2022-10-13T16:11:54.659Z,8.38
2022-10-13T16:16:46.819Z,7.22
2022-10-13T16:20:48.848Z,8.38
2022-10-13T16:24:52.062Z,9.43
2022-10-13T16:28:54.997Z,9.45
2022-10-13T16:32:57.115Z,8.23
2022-10-13T16:36:59.042Z,7.15
2022-10-13T16:41:09.984Z,8.75
2022-10-13T16:45:11.691Z,9.60
2022-10-13T16:49:13.301Z,9.10
2022-10-13T16:53:14.874Z,9.52
2022-10-13T16:57:16.452Z,10.90
2022-10-13T17:01:18.604Z,10.60
2022-10-13T17:05:20.272Z,10.45
2022-10-13T17:09:21.852Z,9.93
2022-10-13T17:13:23.520Z,10.70
2022-10-13T17:17:25.682Z,11.13
2022-10-13T17:21:27.256Z,10.73
2022-10-13T17:25:29.058Z,9.93
2022-10-13T17:29:30.692Z,10.63
2022-10-13T17:33:45.375Z,11.55
2022-10-13T17:37:55.914Z,11.45
2022-10-13T17:41:59.071Z,11.57
2022-10-13T17:46:36.872Z,11.98
2022-10-13T17:50:41.343Z,12.27
2022-10-13T17:54:50.567Z,11.85
2022-10-13T17:58:59.145Z,11.52
2022-10-13T18:03:00.938Z,12.40
2022-10-13T18:07:06.338Z,12.52
2022-10-13T18:11:10.367Z,12.18
2022-10-13T18:15:12.079Z,13.00
2022-10-13T18:19:13.708Z,12.75
2022-10-13T18:23:15.409Z,13.25
2022-10-13T18:27:17.100Z,14.68
2022-10-13T18:31:27.853Z,14.70
2022-10-13T18:35:32.491Z,14.15
2022-10-13T18:39:34.980Z,13.10
2022-10-13T18:43:36.566Z,13.15
2022-10-13T18:47:38.112Z,13.70
2022-10-13T18:51:41.164Z,12.57
2022-10-13T18:55:51.373Z,14.23
2022-10-13T18:59:53.090Z,13.50
2022-10-13T19:04:03.644Z,13.82
2022-10-13T19:08:09.361Z,13.65
2022-10-13T19:12:11.169Z,14.75
2022-10-13T19:16:14.279Z,13.75
2022-10-13T19:20:16.020Z,14.43
2022-10-13T19:24:20.933Z,14.15
2022-10-13T19:28:22.702Z,13.80
2022-10-13T19:32:28.851Z,14.32
2022-10-13T19:36:39.001Z,14.30
2022-10-13T19:40:47.946Z,15.48
2022-10-13T19:44:50.038Z,17.65
2022-10-13T19:48:51.873Z,17.67
2022-10-13T19:52:53.550Z,15.82
2022-10-13T19:56:55.150Z,17.10
2022-10-13T20:01:02.641Z,16.15
2022-10-13T20:05:04.728Z,15.63
2022-10-13T20:09:06.699Z,15.77
2022-10-13T20:13:09.917Z,15.80
2022-10-13T20:17:13.757Z,18.25
2022-10-13T20:21:16.986Z,15.07
2022-10-13T20:25:19.931Z,20.52
2022-10-13T20:29:21.511Z,15.10
2022-10-13T20:33:23.161Z,16.83
2022-10-13T20:37:24.932Z,16.58
2022-10-13T20:41:29.634Z,17.73
2022-10-13T20:45:31.318Z,19.50
2022-10-13T20:49:33.092Z,18.48
2022-10-13T20:53:37.348Z,17.15
2022-10-13T20:57:38.978Z,18.38
2022-10-13T21:01:40.784Z,16.45
2022-10-13T21:05:42.427Z,19.17
2022-10-13T21:09:44.240Z,18.50
2022-10-13T21:13:47.021Z,19.70
2022-10-13T21:17:49.353Z,19.95
2022-10-13T21:21:50.951Z,18.42
2022-10-13T21:25:52.569Z,18.85
2022-10-13T21:29:54.274Z,17.83
2022-10-13T21:33:56.743Z,18.05
2022-10-13T21:37:58.338Z,18.60
2022-10-13T21:42:00.025Z,18.63
2022-10-13T21:46:19.736Z,17.48
2022-10-13T21:50:28.326Z,19.30
2022-10-13T21:54:29.935Z,19.10
2022-10-13T21:58:31.766Z,18.92
2022-10-13T22:02:33.316Z,17.60
2022-10-13T22:06:35.070Z,19.52
2022-10-13T22:10:36.748Z,18.15
2022-10-13T22:14:38.592Z,17.88
2022-10-13T22:18:41.020Z,17.40
2022-10-13T22:22:42.782Z,18.45
2022-10-13T22:26:46.260Z,17.00
2022-10-13T22:31:14.099Z,16.67
2022-10-13T22:35:24.948Z,17.25
2022-10-13T22:39:27.513Z,20.30
2022-10-13T22:43:34.553Z,18.33
2022-10-13T22:47:48.906Z,19.00
2022-10-13T22:57:43.758Z,15.63
2022-10-13T23:01:45.502Z,17.55
2022-10-13T23:05:48.868Z,15.32
2022-10-13T23:09:51.567Z,16.95
2022-10-13T23:13:53.612Z,18.98
2022-10-13T23:17:55.374Z,17.67
2022-10-13T23:21:57.135Z,19.77
2022-10-13T23:26:06.873Z,18.33
2022-10-13T23:30:09.077Z,16.88
2022-10-13T23:34:10.602Z,16.67
2022-10-13T23:38:12.191Z,17.38
2022-10-13T23:42:14.038Z,15.77
2022-10-13T23:46:15.529Z,16.48
2022-10-13T23:50:17.261Z,18.67
2022-10-13T23:54:18.763Z,18.77
2022-10-13T23:58:20.402Z,16.83
